sensor_id;sensor_type;location;lat;lon;timestamp;pressure;altitude;pressure_sealevel;temperature;humidity
53546;BME280;39432;51.902;10.844;2023-10-08T00:00:17;99789.75;;;18.25;100.00
53546;BME280;39432;51.902;10.844;2023-10-08T00:03:23;99807.53;;;17.67;100.00
53546;BME280;39432;51.902;10.844;2023-10-08T00:06:17;99831.75;;;17.37;100.00
53546;BME280;39432;51.902;10.844;2023-10-08T00:09:08;99855.09;;;17.50;100.00
53546;BME280;39432;51.902;10.844;2023-10-08T00:11:58;99869.78;;;17.27;100.00
53546;BME280;39432;51.902;10.844;2023-10-08T00:14:50;99890.41;;;17.16;100.00
53546;BME280;39432;51.902;10.844;2023-10-08T00:17:41;99923.22;;;17.22;100.00
53546;BME280;39432;51.902;10.844;2023-10-08T00:20:35;99958.22;;;16.79;100.00
53546;BME280;39432;51.902;10.844;2023-10-08T00:23:33;99961.88;;;14.49;100.00
53546;BME280;39432;51.902;10.844;2023-10-08T00:26:24;100021.03;;;13.16;100.00
53546;BME280;39432;51.902;10.844;2023-10-08T00:29:18;100047.53;;;12.96;100.00
53546;BME280;39432;51.902;10.844;2023-10-08T00:32:10;100085.94;;;12.58;100.00
53546;BME280;39432;51.902;10.844;2023-10-08T00:35:05;100088.50;;;12.43;100.00
53546;BME280;39432;51.902;10.844;2023-10-08T00:38:02;100113.97;;;12.38;100.00
53546;BME280;39432;51.902;10.844;2023-10-08T00:40:52;100145.44;;;12.31;100.00
53546;BME280;39432;51.902;10.844;2023-10-08T00:43:43;100178.88;;;12.50;100.00
53546;BME280;39432;51.902;10.844;2023-10-08T00:46:33;100182.97;;;12.25;100.00
53546;BME280;39432;51.902;10.844;2023-10-08T00:49:30;100187.38;;;12.26;100.00
53546;BME280;39432;51.902;10.844;2023-10-08T00:52:35;100203.31;;;12.29;100.00
53546;BME280;39432;51.902;10.844;2023-10-08T00:55:45;100230.19;;;12.49;100.00
53546;BME280;39432;51.902;10.844;2023-10-08T00:58:49;100238.44;;;12.71;100.00
53546;BME280;39432;51.902;10.844;2023-10-08T01:01:42;100257.88;;;13.13;100.00
53546;BME280;39432;51.902;10.844;2023-10-08T01:04:39;100247.53;;;12.99;100.00
53546;BME280;39432;51.902;10.844;2023-10-08T01:07:32;100262.97;;;13.54;100.00
53546;BME280;39432;51.902;10.844;2023-10-08T01:10:23;100259.03;;;13.44;100.00
53546;BME280;39432;51.902;10.844;2023-10-08T01:13:15;100265.72;;;13.86;100.00
53546;BME280;39432;51.902;10.844;2023-10-08T01:16:08;100270.56;;;14.11;100.00
53546;BME280;39432;51.902;10.844;2023-10-08T01:18:58;100277.56;;;13.86;100.00
53546;BME280;39432;51.902;10.844;2023-10-08T01:21:49;100258.34;;;13.91;100.00
53546;BME280;39432;51.902;10.844;2023-10-08T01:24:42;100254.56;;;13.38;100.00
53546;BME280;39432;51.902;10.844;2023-10-08T01:27:36;100272.00;;;13.22;100.00
53546;BME280;39432;51.902;10.844;2023-10-08T01:30:27;100268.06;;;13.18;100.00
53546;BME280;39432;51.902;10.844;2023-10-08T01:33:23;100279.66;;;13.20;100.00
53546;BME280;39432;51.902;10.844;2023-10-08T01:36:16;100287.66;;;13.00;100.00
53546;BME280;39432;51.902;10.844;2023-10-08T01:39:06;100291.81;;;12.80;100.00
53546;BME280;39432;51.902;10.844;2023-10-08T01:42:03;100294.94;;;12.89;100.00
53546;BME280;39432;51.902;10.844;2023-10-08T01:45:03;100299.78;;;12.82;100.00
53546;BME280;39432;51.902;10.844;2023-10-08T01:47:55;100325.28;;;12.77;100.00
53546;BME280;39432;51.902;10.844;2023-10-08T01:50:45;100318.13;;;12.76;100.00
53546;BME280;39432;51.902;10.844;2023-10-08T01:53:38;100337.66;;;13.02;100.00
53546;BME280;39432;51.902;10.844;2023-10-08T01:56:29;100325.34;;;13.04;100.00
53546;BME280;39432;51.902;10.844;2023-10-08T01:59:22;100339.22;;;12.92;100.00
53546;BME280;39432;51.902;10.844;2023-10-08T02:02:12;100329.66;;;12.56;100.00
53546;BME280;39432;51.902;10.844;2023-10-08T02:05:03;100340.81;;;12.50;100.00
53546;BME280;39432;51.902;10.844;2023-10-08T02:07:54;100360.06;;;12.72;100.00
53546;BME280;39432;51.902;10.844;2023-10-08T02:10:45;100367.63;;;12.81;100.00
53546;BME280;39432;51.902;10.844;2023-10-08T02:13:37;100372.25;;;12.98;100.00
53546;BME280;39432;51.902;10.844;2023-10-08T02:16:30;100385.97;;;12.98;100.00
53546;BME280;39432;51.902;10.844;2023-10-08T02:19:20;100371.00;;;12.88;100.00
53546;BME280;39432;51.902;10.844;2023-10-08T02:22:15;100343.41;;;12.78;100.00
53546;BME280;39432;51.902;10.844;2023-10-08T02:25:07;100374.91;;;12.54;100.00
53546;BME280;39432;51.902;10.844;2023-10-08T02:27:59;100396.66;;;12.77;100.00
53546;BME280;39432;51.902;10.844;2023-10-08T02:30:50;100371.28;;;12.15;100.00
53546;BME280;39432;51.902;10.844;2023-10-08T02:33:42;100381.56;;;11.33;100.00
53546;BME280;39432;51.902;10.844;2023-10-08T02:36:33;100395.94;;;10.89;100.00
53546;BME280;39432;51.902;10.844;2023-10-08T02:39:29;100387.00;;;10.81;100.00
53546;BME280;39432;51.902;10.844;2023-10-08T02:42:22;100395.81;;;10.60;100.00
53546;BME280;39432;51.902;10.844;2023-10-08T02:45:13;100392.50;;;10.35;100.00
53546;BME280;39432;51.902;10.844;2023-10-08T02:48:04;100404.41;;;10.28;100.00
53546;BME280;39432;51.902;10.844;2023-10-08T02:51:02;100402.63;;;10.46;100.00
53546;BME280;39432;51.902;10.844;2023-10-08T02:54:01;100406.84;;;10.18;100.00
53546;BME280;39432;51.902;10.844;2023-10-08T02:56:53;100405.47;;;10.27;100.00
53546;BME280;39432;51.902;10.844;2023-10-08T02:59:46;100411.81;;;10.21;100.00
53546;BME280;39432;51.902;10.844;2023-10-08T03:02:36;100394.00;;;10.07;100.00
53546;BME280;39432;51.902;10.844;2023-10-08T03:05:27;100386.09;;;9.99;100.00
53546;BME280;39432;51.902;10.844;2023-10-08T03:08:26;100388.63;;;10.00;100.00
53546;BME280;39432;51.902;10.844;2023-10-08T03:11:18;100386.66;;;10.43;100.00
53546;BME280;39432;51.902;10.844;2023-10-08T03:14:13;100376.25;;;10.10;100.00
53546;BME280;39432;51.902;10.844;2023-10-08T03:17:10;100351.22;;;9.71;100.00
53546;BME280;39432;51.902;10.844;2023-10-08T03:20:05;100357.78;;;9.82;100.00
53546;BME280;39432;51.902;10.844;2023-10-08T03:23:17;100348.09;;;10.21;100.00
53546;BME280;39432;51.902;10.844;2023-10-08T03:26:24;100334.81;;;10.24;100.00
53546;BME280;39432;51.902;10.844;2023-10-08T03:29:24;100331.69;;;10.09;100.00
53546;BME280;39432;51.902;10.844;2023-10-08T03:32:18;100347.50;;;10.19;100.00
53546;BME280;39432;51.902;10.844;2023-10-08T03:35:14;100348.03;;;10.39;100.00
53546;BME280;39432;51.902;10.844;2023-10-08T03:38:14;100341.00;;;10.32;100.00
53546;BME280;39432;51.902;10.844;2023-10-08T03:41:09;100347.41;;;10.49;100.00
53546;BME280;39432;51.902;10.844;2023-10-08T03:44:07;100310.69;;;10.33;100.00
53546;BME280;39432;51.902;10.844;2023-10-08T03:47:00;100272.38;;;9.98;100.00
53546;BME280;39432;51.902;10.844;2023-10-08T03:49:58;100276.88;;;10.16;100.00
53546;BME280;39432;51.902;10.844;2023-10-08T03:52:53;100302.00;;;10.24;100.00
53546;BME280;39432;51.902;10.844;2023-10-08T03:55:43;100302.59;;;10.26;100.00
53546;BME280;39432;51.902;10.844;2023-10-08T03:58:36;100312.66;;;10.14;100.00
53546;BME280;39432;51.902;10.844;2023-10-08T04:01:36;100320.41;;;10.06;100.00
53546;BME280;39432;51.902;10.844;2023-10-08T04:04:27;100335.75;;;10.18;100.00
53546;BME280;39432;51.902;10.844;2023-10-08T04:07:36;100347.41;;;10.49;100.00
53546;BME280;39432;51.902;10.844;2023-10-08T04:10:49;100345.63;;;10.66;100.00
53546;BME280;39432;51.902;10.844;2023-10-08T04:13:52;100346.25;;;10.45;100.00
53546;BME280;39432;51.902;10.844;2023-10-08T04:16:45;100328.41;;;10.31;100.00
53546;BME280;39432;51.902;10.844;2023-10-08T04:19:38;100332.75;;;10.08;100.00
53546;BME280;39432;51.902;10.844;2023-10-08T04:22:29;100323.72;;;10.08;100.00
53546;BME280;39432;51.902;10.844;2023-10-08T04:25:20;100337.69;;;10.29;100.00
53546;BME280;39432;51.902;10.844;2023-10-08T04:28:10;100341.50;;;10.28;100.00
53546;BME280;39432;51.902;10.844;2023-10-08T04:31:05;100337.22;;;10.44;100.00
53546;BME280;39432;51.902;10.844;2023-10-08T04:34:07;100344.81;;;10.42;100.00
53546;BME280;39432;51.902;10.844;2023-10-08T04:37:03;100338.16;;;10.50;100.00
53546;BME280;39432;51.902;10.844;2023-10-08T04:40:00;100335.91;;;10.23;100.00
53546;BME280;39432;51.902;10.844;2023-10-08T04:42:52;100333.72;;;10.02;100.00
53546;BME280;39432;51.902;10.844;2023-10-08T04:45:46;100355.72;;;10.19;100.00
53546;BME280;39432;51.902;10.844;2023-10-08T04:48:37;100366.97;;;10.11;100.00
53546;BME280;39432;51.902;10.844;2023-10-08T04:51:34;100369.78;;;10.46;100.00
53546;BME280;39432;51.902;10.844;2023-10-08T04:54:31;100376.31;;;10.68;100.00
53546;BME280;39432;51.902;10.844;2023-10-08T04:57:27;100385.47;;;10.86;100.00
53546;BME280;39432;51.902;10.844;2023-10-08T05:00:18;100372.63;;;10.74;100.00
53546;BME280;39432;51.902;10.844;2023-10-08T05:03:28;100367.44;;;11.13;100.00
53546;BME280;39432;51.902;10.844;2023-10-08T05:06:34;100364.75;;;10.90;100.00
53546;BME280;39432;51.902;10.844;2023-10-08T05:09:48;100354.53;;;10.73;100.00
53546;BME280;39432;51.902;10.844;2023-10-08T05:12:39;100343.34;;;10.75;100.00
53546;BME280;39432;51.902;10.844;2023-10-08T05:15:34;100362.31;;;11.17;100.00
53546;BME280;39432;51.902;10.844;2023-10-08T05:18:25;100353.41;;;10.98;100.00
53546;BME280;39432;51.902;10.844;2023-10-08T05:21:37;100345.44;;;11.65;100.00
53546;BME280;39432;51.902;10.844;2023-10-08T05:24:38;100351.72;;;11.49;100.00
53546;BME280;39432;51.902;10.844;2023-10-08T05:27:28;100347.88;;;11.50;100.00
53546;BME280;39432;51.902;10.844;2023-10-08T05:30:44;100350.22;;;11.58;100.00
53546;BME280;39432;51.902;10.844;2023-10-08T05:33:42;100331.72;;;11.94;100.00
53546;BME280;39432;51.902;10.844;2023-10-08T05:36:49;100332.06;;;11.69;100.00
53546;BME280;39432;51.902;10.844;2023-10-08T05:39:38;100334.53;;;11.99;100.00
53546;BME280;39432;51.902;10.844;2023-10-08T05:42:41;100313.88;;;11.79;100.00
53546;BME280;39432;51.902;10.844;2023-10-08T05:45:34;100310.34;;;11.96;100.00
53546;BME280;39432;51.902;10.844;2023-10-08T05:48:24;100323.00;;;11.68;100.00
53546;BME280;39432;51.902;10.844;2023-10-08T05:51:15;100310.63;;;12.50;100.00
53546;BME280;39432;51.902;10.844;2023-10-08T05:54:25;100325.47;;;12.15;100.00
53546;BME280;39432;51.902;10.844;2023-10-08T05:57:23;100338.03;;;12.11;100.00
53546;BME280;39432;51.902;10.844;2023-10-08T06:00:26;100338.66;;;12.35;100.00
53546;BME280;39432;51.902;10.844;2023-10-08T06:03:34;100363.44;;;12.40;100.00
53546;BME280;39432;51.902;10.844;2023-10-08T06:06:36;100362.19;;;12.48;100.00
53546;BME280;39432;51.902;10.844;2023-10-08T06:09:27;100353.81;;;12.04;100.00
53546;BME280;39432;51.902;10.844;2023-10-08T06:12:22;100362.13;;;11.80;100.00
53546;BME280;39432;51.902;10.844;2023-10-08T06:15:35;100382.00;;;11.71;100.00
53546;BME280;39432;51.902;10.844;2023-10-08T06:18:32;100390.38;;;11.81;100.00
53546;BME280;39432;51.902;10.844;2023-10-08T06:21:24;100390.88;;;11.90;100.00
53546;BME280;39432;51.902;10.844;2023-10-08T06:24:14;100394.06;;;12.15;100.00
53546;BME280;39432;51.902;10.844;2023-10-08T06:27:07;100395.28;;;12.24;100.00
53546;BME280;39432;51.902;10.844;2023-10-08T06:30:00;100392.88;;;12.11;100.00
53546;BME280;39432;51.902;10.844;2023-10-08T06:32:52;100394.47;;;12.40;100.00
53546;BME280;39432;51.902;10.844;2023-10-08T06:35:44;100374.25;;;12.13;100.00
53546;BME280;39432;51.902;10.844;2023-10-08T06:38:49;100390.88;;;12.06;100.00
53546;BME280;39432;51.902;10.844;2023-10-08T06:41:39;100397.69;;;11.75;100.00
53546;BME280;39432;51.902;10.844;2023-10-08T06:44:41;100392.22;;;12.04;100.00
53546;BME280;39432;51.902;10.844;2023-10-08T06:47:33;100384.91;;;12.26;100.00
53546;BME280;39432;51.902;10.844;2023-10-08T06:50:24;100405.50;;;12.12;100.00
53546;BME280;39432;51.902;10.844;2023-10-08T06:53:14;100406.25;;;12.24;100.00
53546;BME280;39432;51.902;10.844;2023-10-08T06:56:05;100419.97;;;12.24;100.00
53546;BME280;39432;51.902;10.844;2023-10-08T06:58:58;100420.16;;;12.34;100.00
53546;BME280;39432;51.902;10.844;2023-10-08T07:01:51;100411.50;;;12.09;100.00
53546;BME280;39432;51.902;10.844;2023-10-08T07:04:42;100405.25;;;12.30;100.00
53546;BME280;39432;51.902;10.844;2023-10-08T07:07:35;100426.47;;;12.35;100.00
53546;BME280;39432;51.902;10.844;2023-10-08T07:10:26;100423.66;;;12.47;100.00
53546;BME280;39432;51.902;10.844;2023-10-08T07:13:17;100427.81;;;12.49;100.00
53546;BME280;39432;51.902;10.844;2023-10-08T07:16:09;100424.16;;;12.44;100.00
53546;BME280;39432;51.902;10.844;2023-10-08T07:19:07;100411.81;;;12.63;100.00
53546;BME280;39432;51.902;10.844;2023-10-08T07:22:05;100422.69;;;12.53;100.00
53546;BME280;39432;51.902;10.844;2023-10-08T07:25:07;100435.78;;;12.51;100.00
53546;BME280;39432;51.902;10.844;2023-10-08T07:28:01;100435.31;;;12.71;100.00
53546;BME280;39432;51.902;10.844;2023-10-08T07:30:59;100438.78;;;12.83;100.00
53546;BME280;39432;51.902;10.844;2023-10-08T07:33:51;100426.56;;;12.57;100.00
53546;BME280;39432;51.902;10.844;2023-10-08T07:36:47;100442.44;;;12.88;100.00
53546;BME280;39432;51.902;10.844;2023-10-08T07:39:38;100441.78;;;12.81;100.00
53546;BME280;39432;51.902;10.844;2023-10-08T07:42:34;100445.22;;;12.55;100.00
53546;BME280;39432;51.902;10.844;2023-10-08T07:45:24;100458.41;;;12.58;100.00
53546;BME280;39432;51.902;10.844;2023-10-08T07:48:15;100469.41;;;12.58;100.00
53546;BME280;39432;51.902;10.844;2023-10-08T07:51:05;100470.41;;;12.52;100.00
53546;BME280;39432;51.902;10.844;2023-10-08T07:53:58;100489.38;;;12.87;100.00
53546;BME280;39432;51.902;10.844;2023-10-08T07:56:49;100468.06;;;12.77;100.00
53546;BME280;39432;51.902;10.844;2023-10-08T07:59:45;100483.41;;;13.12;100.00
53546;BME280;39432;51.902;10.844;2023-10-08T08:02:38;100487.38;;;12.99;100.00
53546;BME280;39432;51.902;10.844;2023-10-08T08:05:29;100499.03;;;12.89;100.00
53546;BME280;39432;51.902;10.844;2023-10-08T08:08:22;100497.09;;;12.73;100.00
53546;BME280;39432;51.902;10.844;2023-10-08T08:11:17;100483.72;;;12.93;100.00
53546;BME280;39432;51.902;10.844;2023-10-08T08:14:14;100498.34;;;12.32;100.00
53546;BME280;39432;51.902;10.844;2023-10-08T08:17:09;100486.28;;;12.66;100.00
53546;BME280;39432;51.902;10.844;2023-10-08T08:20:04;100476.56;;;12.92;100.00
53546;BME280;39432;51.902;10.844;2023-10-08T08:23:05;100484.69;;;13.21;100.00
53546;BME280;39432;51.902;10.844;2023-10-08T08:25:57;100487.00;;;13.12;100.00
53546;BME280;39432;51.902;10.844;2023-10-08T08:29:02;100487.00;;;13.29;100.00
53546;BME280;39432;51.902;10.844;2023-10-08T08:31:56;100500.59;;;13.58;100.00
53546;BME280;39432;51.902;10.844;2023-10-08T08:34:46;100497.97;;;13.29;100.00
53546;BME280;39432;51.902;10.844;2023-10-08T08:37:38;100495.78;;;14.19;100.00
53546;BME280;39432;51.902;10.844;2023-10-08T08:40:28;100482.88;;;13.70;100.00
53546;BME280;39432;51.902;10.844;2023-10-08T08:43:19;100491.94;;;13.93;100.00
53546;BME280;39432;51.902;10.844;2023-10-08T08:46:13;100494.13;;;13.69;100.00
53546;BME280;39432;51.902;10.844;2023-10-08T08:49:04;100490.47;;;13.85;100.00
53546;BME280;39432;51.902;10.844;2023-10-08T08:51:56;100492.19;;;13.09;100.00
53546;BME280;39432;51.902;10.844;2023-10-08T08:54:48;100514.16;;;13.09;100.00
53546;BME280;39432;51.902;10.844;2023-10-08T08:57:39;100516.75;;;13.76;100.00
53546;BME280;39432;51.902;10.844;2023-10-08T09:00:31;100503.75;;;13.93;100.00
53546;BME280;39432;51.902;10.844;2023-10-08T09:03:24;100506.03;;;14.23;100.00
53546;BME280;39432;51.902;10.844;2023-10-08T09:06:18;100513.97;;;13.32;100.00
53546;BME280;39432;51.902;10.844;2023-10-08T09:09:08;100517.63;;;13.38;100.00
53546;BME280;39432;51.902;10.844;2023-10-08T09:12:09;100522.75;;;13.95;100.00
53546;BME280;39432;51.902;10.844;2023-10-08T09:15:00;100525.22;;;13.91;100.00
53546;BME280;39432;51.902;10.844;2023-10-08T09:17:52;100521.06;;;14.16;100.00
53546;BME280;39432;51.902;10.844;2023-10-08T09:20:46;100522.59;;;14.29;100.00
53546;BME280;39432;51.902;10.844;2023-10-08T09:23:39;100514.56;;;14.00;100.00
53546;BME280;39432;51.902;10.844;2023-10-08T09:26:30;100521.41;;;14.46;100.00
53546;BME280;39432;51.902;10.844;2023-10-08T09:29:24;100518.72;;;14.52;100.00
53546;BME280;39432;51.902;10.844;2023-10-08T09:32:15;100511.34;;;14.89;100.00
53546;BME280;39432;51.902;10.844;2023-10-08T09:35:12;100509.13;;;14.91;100.00
53546;BME280;39432;51.902;10.844;2023-10-08T09:38:08;100516.66;;;14.69;100.00
53546;BME280;39432;51.902;10.844;2023-10-08T09:40:59;100524.16;;;14.73;100.00
53546;BME280;39432;51.902;10.844;2023-10-08T09:43:50;100523.31;;;15.10;100.00
53546;BME280;39432;51.902;10.844;2023-10-08T09:46:42;100533.09;;;14.59;100.00
53546;BME280;39432;51.902;10.844;2023-10-08T09:49:38;100532.16;;;14.75;100.00
53546;BME280;39432;51.902;10.844;2023-10-08T09:52:34;100541.53;;;14.47;100.00
53546;BME280;39432;51.902;10.844;2023-10-08T09:55:29;100548.25;;;14.34;100.00
53546;BME280;39432;51.902;10.844;2023-10-08T09:58:20;100558.03;;;14.74;100.00
53546;BME280;39432;51.902;10.844;2023-10-08T10:01:12;100553.34;;;14.74;100.00
53546;BME280;39432;51.902;10.844;2023-10-08T10:04:06;100553.69;;;14.78;100.00
53546;BME280;39432;51.902;10.844;2023-10-08T10:06:57;100552.69;;;15.32;100.00
53546;BME280;39432;51.902;10.844;2023-10-08T10:09:50;100555.25;;;15.43;100.00
53546;BME280;39432;51.902;10.844;2023-10-08T10:12:43;100553.34;;;15.49;100.00
53546;BME280;39432;51.902;10.844;2023-10-08T10:15:33;100540.34;;;15.39;100.00
53546;BME280;39432;51.902;10.844;2023-10-08T10:18:29;100557.97;;;15.38;100.00
53546;BME280;39432;51.902;10.844;2023-10-08T10:21:37;100556.78;;;15.24;100.00
53546;BME280;39432;51.902;10.844;2023-10-08T10:24:32;100546.72;;;15.45;100.00
53546;BME280;39432;51.902;10.844;2023-10-08T10:27:24;100545.06;;;15.44;100.00
53546;BME280;39432;51.902;10.844;2023-10-08T10:30:17;100549.06;;;15.26;100.00
53546;BME280;39432;51.902;10.844;2023-10-08T10:33:10;100553.59;;;15.42;100.00
53546;BME280;39432;51.902;10.844;2023-10-08T10:36:01;100542.91;;;16.14;100.00
53546;BME280;39432;51.902;10.844;2023-10-08T10:38:53;100550.66;;;16.12;100.00
53546;BME280;39432;51.902;10.844;2023-10-08T10:41:45;100557.50;;;15.51;100.00
53546;BME280;39432;51.902;10.844;2023-10-08T10:44:36;100558.44;;;15.25;100.00
53546;BME280;39432;51.902;10.844;2023-10-08T10:47:29;100560.31;;;14.55;100.00
53546;BME280;39432;51.902;10.844;2023-10-08T10:50:30;100559.03;;;15.32;100.00
53546;BME280;39432;51.902;10.844;2023-10-08T10:53:19;100559.41;;;15.46;100.00
53546;BME280;39432;51.902;10.844;2023-10-08T10:56:12;100550.25;;;15.77;100.00
53546;BME280;39432;51.902;10.844;2023-10-08T10:59:06;100549.22;;;15.46;100.00
53546;BME280;39432;51.902;10.844;2023-10-08T11:02:03;100555.88;;;16.08;100.00
53546;BME280;39432;51.902;10.844;2023-10-08T11:04:58;100556.06;;;15.86;100.00
53546;BME280;39432;51.902;10.844;2023-10-08T11:07:56;100553.38;;;16.06;100.00
53546;BME280;39432;51.902;10.844;2023-10-08T11:10:52;100550.63;;;16.06;100.00
53546;BME280;39432;51.902;10.844;2023-10-08T11:13:46;100565.31;;;16.17;100.00
53546;BME280;39432;51.902;10.844;2023-10-08T11:16:42;100563.91;;;16.20;100.00
53546;BME280;39432;51.902;10.844;2023-10-08T11:19:35;100577.00;;;15.82;100.00
53546;BME280;39432;51.902;10.844;2023-10-08T11:22:45;100574.84;;;15.89;100.00
53546;BME280;39432;51.902;10.844;2023-10-08T11:25:35;100555.91;;;15.18;100.00
53546;BME280;39432;51.902;10.844;2023-10-08T11:28:31;100574.22;;;15.35;100.00
53546;BME280;39432;51.902;10.844;2023-10-08T11:31:29;100570.13;;;15.42;100.00
53546;BME280;39432;51.902;10.844;2023-10-08T11:34:21;100562.13;;;15.03;100.00
53546;BME280;39432;51.902;10.844;2023-10-08T11:37:26;100546.53;;;16.19;100.00
53546;BME280;39432;51.902;10.844;2023-10-08T11:40:25;100543.75;;;16.19;100.00
53546;BME280;39432;51.902;10.844;2023-10-08T11:43:36;100545.69;;;16.19;100.00
53546;BME280;39432;51.902;10.844;2023-10-08T11:46:28;100539.31;;;15.50;100.00
53546;BME280;39432;51.902;10.844;2023-10-08T11:49:20;100544.13;;;16.48;100.00
53546;BME280;39432;51.902;10.844;2023-10-08T11:52:13;100534.56;;;15.98;100.00
53546;BME280;39432;51.902;10.844;2023-10-08T11:55:07;100536.94;;;15.69;100.00
53546;BME280;39432;51.902;10.844;2023-10-08T11:58:00;100541.19;;;15.92;99.72
53546;BME280;39432;51.902;10.844;2023-10-08T12:00:57;100535.16;;;16.00;98.12
53546;BME280;39432;51.902;10.844;2023-10-08T12:03:51;100530.97;;;15.98;100.00
53546;BME280;39432;51.902;10.844;2023-10-08T12:06:47;100515.88;;;16.31;99.10
53546;BME280;39432;51.902;10.844;2023-10-08T12:09:39;100524.97;;;16.06;96.29
53546;BME280;39432;51.902;10.844;2023-10-08T12:12:30;100511.19;;;16.37;96.88
53546;BME280;39432;51.902;10.844;2023-10-08T12:15:26;100514.28;;;16.60;93.95
53546;BME280;39432;51.902;10.844;2023-10-08T12:18:25;100535.59;;;15.82;92.91
53546;BME280;39432;51.902;10.844;2023-10-08T12:21:19;100528.69;;;16.73;94.00
53546;BME280;39432;51.902;10.844;2023-10-08T12:24:12;100522.59;;;16.66;94.16
53546;BME280;39432;51.902;10.844;2023-10-08T12:27:02;100482.25;;;16.85;93.63
53546;BME280;39432;51.902;10.844;2023-10-08T12:29:53;100468.34;;;16.14;97.03
53546;BME280;39432;51.902;10.844;2023-10-08T12:32:49;100504.22;;;16.03;100.00
53546;BME280;39432;51.902;10.844;2023-10-08T12:35:39;100504.75;;;15.90;97.88
53546;BME280;39432;51.902;10.844;2023-10-08T12:38:30;100522.00;;;16.53;98.49
53546;BME280;39432;51.902;10.844;2023-10-08T12:41:21;100518.56;;;15.95;96.22
53546;BME280;39432;51.902;10.844;2023-10-08T12:44:14;100514.53;;;16.33;96.08
53546;BME280;39432;51.902;10.844;2023-10-08T12:47:04;100525.84;;;16.27;96.09
53546;BME280;39432;51.902;10.844;2023-10-08T12:49:57;100510.97;;;16.48;95.98
53546;BME280;39432;51.902;10.844;2023-10-08T12:52:47;100508.22;;;16.74;95.41
53546;BME280;39432;51.902;10.844;2023-10-08T12:55:40;100514.81;;;16.57;93.45
53546;BME280;39432;51.902;10.844;2023-10-08T12:58:31;100512.91;;;16.43;94.92
53546;BME280;39432;51.902;10.844;2023-10-08T13:01:26;100494.38;;;17.20;92.13
53546;BME280;39432;51.902;10.844;2023-10-08T13:04:17;100499.41;;;16.72;92.25
53546;BME280;39432;51.902;10.844;2023-10-08T13:07:17;100485.50;;;16.31;91.40
53546;BME280;39432;51.902;10.844;2023-10-08T13:10:09;100481.06;;;16.15;90.01
53546;BME280;39432;51.902;10.844;2023-10-08T13:13:02;100483.34;;;16.48;91.62
53546;BME280;39432;51.902;10.844;2023-10-08T13:15:52;100485.25;;;15.54;97.31
53546;BME280;39432;51.902;10.844;2023-10-08T13:18:44;100485.50;;;16.16;98.18
53546;BME280;39432;51.902;10.844;2023-10-08T13:21:34;100474.47;;;16.21;94.33
53546;BME280;39432;51.902;10.844;2023-10-08T13:24:27;100471.72;;;16.51;94.48
53546;BME280;39432;51.902;10.844;2023-10-08T13:27:18;100468.13;;;16.66;97.11
53546;BME280;39432;51.902;10.844;2023-10-08T13:30:09;100465.09;;;16.47;94.71
53546;BME280;39432;51.902;10.844;2023-10-08T13:33:00;100461.16;;;16.02;93.49
53546;BME280;39432;51.902;10.844;2023-10-08T13:35:51;100450.47;;;16.82;93.31
53546;BME280;39432;51.902;10.844;2023-10-08T13:39:01;100440.72;;;17.16;90.91
53546;BME280;39432;51.902;10.844;2023-10-08T13:41:58;100435.81;;;16.67;88.06
53546;BME280;39432;51.902;10.844;2023-10-08T13:44:50;100447.69;;;16.42;90.20
53546;BME280;39432;51.902;10.844;2023-10-08T13:47:43;100441.88;;;16.53;90.46
53546;BME280;39432;51.902;10.844;2023-10-08T13:50:35;100457.63;;;16.68;89.16
53546;BME280;39432;51.902;10.844;2023-10-08T13:53:25;100461.78;;;16.60;88.84
53546;BME280;39432;51.902;10.844;2023-10-08T13:56:17;100467.84;;;16.63;90.06
53546;BME280;39432;51.902;10.844;2023-10-08T13:59:10;100472.81;;;16.30;89.29
53546;BME280;39432;51.902;10.844;2023-10-08T14:02:01;100467.84;;;16.37;90.41
53546;BME280;39432;51.902;10.844;2023-10-08T14:05:02;100468.34;;;16.08;88.22
53546;BME280;39432;51.902;10.844;2023-10-08T14:07:56;100472.53;;;16.52;90.01
53546;BME280;39432;51.902;10.844;2023-10-08T14:10:49;100478.91;;;16.63;83.17
53546;BME280;39432;51.902;10.844;2023-10-08T14:13:39;100485.84;;;16.70;77.33
53546;BME280;39432;51.902;10.844;2023-10-08T14:16:33;100489.94;;;16.42;78.76
53546;BME280;39432;51.902;10.844;2023-10-08T14:19:24;100489.94;;;16.22;83.30
53546;BME280;39432;51.902;10.844;2023-10-08T14:22:17;100493.81;;;16.51;83.65
53546;BME280;39432;51.902;10.844;2023-10-08T14:25:10;100487.66;;;16.03;83.95
53546;BME280;39432;51.902;10.844;2023-10-08T14:28:05;100469.88;;;15.64;82.67
53546;BME280;39432;51.902;10.844;2023-10-08T14:30:56;100460.38;;;15.39;82.37
53546;BME280;39432;51.902;10.844;2023-10-08T14:33:52;100467.59;;;16.44;87.31
53546;BME280;39432;51.902;10.844;2023-10-08T14:37:06;100459.53;;;17.08;86.72
53546;BME280;39432;51.902;10.844;2023-10-08T14:40:09;100475.34;;;16.88;87.27
53546;BME280;39432;51.902;10.844;2023-10-08T14:43:12;100468.69;;;16.53;84.37
53546;BME280;39432;51.902;10.844;2023-10-08T14:46:03;100456.16;;;15.84;93.00
53546;BME280;39432;51.902;10.844;2023-10-08T14:48:59;100458.34;;;15.82;98.28
53546;BME280;39432;51.902;10.844;2023-10-08T14:51:50;100455.69;;;16.53;94.63